Time;durP1;ratioP1;P1;durP2;ratioP2;P2;SDS_P1;SDS_P2;PMS_P1;PMS_P2;Temp;Humidity;BMP_temperature;BMP_pressure;BME280_temperature;BME280_humidity;BME280_pressure;Samples;Min_cycle;Max_cycle;Signal;HPM_P1;HPM_P2
2022/11/09 00:00:01;;;;;;;;;;;;;;;;;;5018375;28;20358;-78
2022/11/09 00:02:27;;;;;;;;;;;;;;;;;;5017900;28;19910;-77
2022/11/09 00:04:53;;;;;;;;;;;;;;;;;;5017802;28;19995;-78
2022/11/09 00:07:19;;;;;;;;;;;;;;;;;;5017601;28;19913;-77
2022/11/09 00:09:45;;;;;;;;;;;;;;;;;;5019228;28;19909;-77
2022/11/09 00:12:11;;;;;;;;;;;;;;;;;;5019474;28;19910;-78
2022/11/09 00:14:37;;;;;;;;;;;;;;;;;;5017924;28;19996;-78
2022/11/09 00:17:03;;;;;;;;;;;;;;;;;;5017901;28;19910;-78
2022/11/09 00:19:29;;;;;;;;;;;;;;;;;;5017636;28;20102;-78
2022/11/09 00:21:55;;;;;;;;;;;;;;;;;;5018600;28;20386;-78
2022/11/09 00:24:21;;;;;;;;;;;;;;;;;;5018877;28;20000;-79
2022/11/09 00:26:47;;;;;;;;;;;;;;;;;;5018144;28;19916;-78
2022/11/09 00:29:13;;;;;;;;;;;;;;;;;;5018748;28;19964;-79
2022/11/09 00:31:39;;;;;;;;;;;;;;;;;;5017939;28;19955;-78
2022/11/09 00:34:04;;;;;;;;;;;;;;;;;;5018876;28;19932;-78
2022/11/09 00:36:30;;;;;;;;;;;;;;;;;;5018580;28;20313;-78
2022/11/09 00:38:56;;;;;;;;;;;;;;;;;;5018127;28;19909;-78
2022/11/09 00:41:22;;;;;;;;;;;;;;;;;;5019315;28;20258;-77
2022/11/09 00:43:48;;;;;;;;;;;;;;;;;;5017970;28;19914;-77
2022/11/09 00:46:14;;;;;;;;;;;;;;;;;;5018478;28;19909;-78
2022/11/09 00:48:40;;;;;;;;;;;;;;;;;;5018754;28;20364;-78
2022/11/09 00:51:06;;;;;;;;;;;;;;;;;;5017639;28;19910;-78
2022/11/09 00:53:31;;;;;;;;;;;;;;;;;;5016639;28;19910;-78
2022/11/09 00:55:57;;;;;;;;;;;;;;;;;;5018107;28;20377;-78
2022/11/09 00:58:23;;;;;;;;;;;;;;;;;;5017872;28;19910;-78
2022/11/09 01:00:49;;;;;;;;;;;;;;;;;;5018731;28;20345;-78
2022/11/09 01:03:15;;;;;;;;;;;;;;;;;;5017910;28;19923;-78
2022/11/09 01:05:41;;;;;;;;;;;;;;;;;;5016598;28;19949;-78
2022/11/09 01:08:07;;;;;;;;;;;;;;;;;;5015925;28;20396;-77
2022/11/09 01:10:33;;;;;;;;;;;;;;;;;;5016462;28;19941;-77
2022/11/09 01:12:59;;;;;;;;;;;;;;;;;;5014444;28;19909;-78
2022/11/09 01:15:25;;;;;;;;;;;;;;;;;;5016151;28;19917;-78
2022/11/09 01:17:50;;;;;;;;;;;;;;;;;;5015853;28;19975;-78
2022/11/09 01:20:16;;;;;;;;;;;;;;;;;;5015733;28;19909;-78
2022/11/09 01:22:42;;;;;;;;;;;;;;;;;;5016999;28;20007;-78
2022/11/09 01:25:08;;;;;;;;;;;;;;;;;;5017170;28;19910;-78
2022/11/09 01:27:34;;;;;;;;;;;;;;;;;;5016042;28;19933;-78
2022/11/09 01:30:00;;;;;;;;;;;;;;;;;;5017371;28;19913;-77
2022/11/09 01:32:26;;;;;;;;;;;;;;;;;;5016095;28;19910;-77
2022/11/09 01:34:52;;;;;;;;;;;;;;;;;;5016034;28;19909;-77
2022/11/09 01:37:17;;;;;;;;;;;;;;;;;;5016150;28;19949;-78
2022/11/09 01:39:43;;;;;;;;;;;;;;;;;;5016365;28;19920;-78
2022/11/09 01:42:09;;;;;;;;;;;;;;;;;;5015279;28;19917;-77
2022/11/09 01:44:35;;;;;;;;;;;;;;;;;;5015667;28;19919;-77
2022/11/09 01:47:01;;;;;;;;;;;;;;;;;;5016385;28;19909;-78
2022/11/09 01:49:27;;;;;;;;;;;;;;;;;;5015516;28;19909;-78
2022/11/09 01:51:53;;;;;;;;;;;;;;;;;;5015410;28;20024;-78
2022/11/09 01:54:19;;;;;;;;;;;;;;;;;;5015661;28;19916;-77
2022/11/09 01:56:45;;;;;;;;;;;;;;;;;;5016947;28;19909;-78
2022/11/09 01:59:11;;;;;;;;;;;;;;;;;;5016252;28;19960;-78
2022/11/09 02:01:37;;;;;;;;;;;;;;;;;;5016747;28;19910;-77
2022/11/09 02:04:03;;;;;;;;;;;;;;;;;;5016077;28;19917;-77
2022/11/09 02:06:29;;;;;;;;;;;;;;;;;;5013079;28;19914;-77
2022/11/09 02:08:54;;;;;;;;;;;;;;;;;;5016037;28;19914;-79
2022/11/09 02:11:20;;;;;;;;;;;;;;;;;;5016693;28;19921;-79
2022/11/09 02:13:46;;;;;;;;;;;;;;;;;;5015865;28;19936;-77
2022/11/09 02:16:12;;;;;;;;;;;;;;;;;;5015160;28;19909;-77
2022/11/09 02:18:38;;;;;;;;;;;;;;;;;;5016765;28;19909;-78
2022/11/09 02:21:04;;;;;;;;;;;;;;;;;;5019822;28;19910;-77
2022/11/09 02:23:30;;;;;;;;;;;;;;;;;;5022817;28;19968;-77
2022/11/09 02:25:56;;;;;;;;;;;;;;;;;;5026758;28;19917;-77
2022/11/09 02:28:22;;;;;;;;;;;;;;;;;;5022622;28;19948;-77
2022/11/09 02:30:48;;;;;;;;;;;;;;;;;;5021045;28;19913;-77
2022/11/09 02:33:14;;;;;;;;;;;;;;;;;;5021045;28;19951;-77
2022/11/09 02:35:39;;;;;;;;;;;;;;;;;;5021911;28;19909;-77
2022/11/09 02:38:05;;;;;;;;;;;;;;;;;;5019980;28;20267;-78
2022/11/09 02:40:31;;;;;;;;;;;;;;;;;;5019036;28;19960;-78
2022/11/09 02:42:57;;;;;;;;;;;;;;;;;;5020972;28;19940;-78
2022/11/09 02:45:23;;;;;;;;;;;;;;;;;;5019111;28;19914;-77
2022/11/09 02:47:49;;;;;;;;;;;;;;;;;;5019380;28;19905;-78
2022/11/09 02:50:15;;;;;;;;;;;;;;;;;;5019861;28;19910;-78
2022/11/09 02:52:41;;;;;;;;;;;;;;;;;;5019332;28;20271;-78
2022/11/09 02:55:07;;;;;;;;;;;;;;;;;;5019586;28;19955;-78
2022/11/09 02:57:33;;;;;;;;;;;;;;;;;;5019458;28;20446;-77
2022/11/09 02:59:59;;;;;;;;;;;;;;;;;;5019052;28;19909;-78
2022/11/09 03:02:25;;;;;;;;;;;;;;;;;;5020849;28;20428;-77
2022/11/09 03:04:51;;;;;;;;;;;;;;;;;;5019888;28;19921;-78
2022/11/09 03:07:16;;;;;;;;;;;;;;;;;;5019066;28;19910;-77
2022/11/09 03:09:42;;;;;;;;;;;;;;;;;;5020011;28;20275;-78
2022/11/09 03:14:53;;;;;;;;;;;;;;;;;;5018950;28;19996;-77
2022/11/09 03:17:19;;;;;;;;;;;;;;;;;;5019332;28;19909;-77
2022/11/09 03:19:45;;;;;;;;;;;;;;;;;;5018142;28;20382;-78
2022/11/09 03:22:11;;;;;;;;;;;;;;;;;;5018402;28;19914;-78
2022/11/09 03:24:37;;;;;;;;;;;;;;;;;;5018985;28;20390;-79
2022/11/09 03:27:03;;;;;;;;;;;;;;;;;;5018112;28;20407;-78
2022/11/09 03:29:29;;;;;;;;;;;;;;;;;;5018201;28;19916;-79
2022/11/09 03:31:55;;;;;;;;;;;;;;;;;;5018082;28;19910;-78
2022/11/09 03:34:20;;;;;;;;;;;;;;;;;;5017974;28;20397;-79
2022/11/09 03:36:46;;;;;;;;;;;;;;;;;;5016389;28;19910;-78
2022/11/09 03:39:12;;;;;;;;;;;;;;;;;;5017728;28;19909;-78
2022/11/09 03:41:38;;;;;;;;;;;;;;;;;;5017650;28;19909;-78
2022/11/09 03:44:04;;;;;;;;;;;;;;;;;;5017214;28;19940;-78
2022/11/09 03:46:30;;;;;;;;;;;;;;;;;;5018130;28;19957;-78
2022/11/09 03:48:56;;;;;;;;;;;;;;;;;;5016351;28;20362;-77
2022/11/09 03:51:22;;;;;;;;;;;;;;;;;;5018427;28;19940;-78
2022/11/09 03:53:48;;;;;;;;;;;;;;;;;;5018224;28;19988;-79
2022/11/09 03:56:13;;;;;;;;;;;;;;;;;;5017541;28;20358;-78
2022/11/09 03:58:39;;;;;;;;;;;;;;;;;;5016627;28;19916;-78
2022/11/09 04:01:05;;;;;;;;;;;;;;;;;;5016843;28;19917;-78
2022/11/09 04:03:31;;;;;;;;;;;;;;;;;;5018091;28;19924;-78
2022/11/09 04:05:57;;;;;;;;;;;;;;;;;;5017163;28;19909;-77
2022/11/09 04:08:23;;;;;;;;;;;;;;;;;;5015522;28;19913;-78
2022/11/09 04:10:49;;;;;;;;;;;;;;;;;;5017620;28;19917;-79
2022/11/09 04:13:15;;;;;;;;;;;;;;;;;;5034910;28;20051;-77
2022/11/09 04:15:40;;;;;;;;;;;;;;;;;;5036705;28;19917;-78
2022/11/09 04:18:06;;;;;;;;;;;;;;;;;;5036263;28;19905;-78
2022/11/09 04:20:32;;;;;;;;;;;;;;;;;;5037377;28;19916;-79
2022/11/09 04:22:58;;;;;;;;;;;;;;;;;;5035972;28;19959;-78
2022/11/09 04:25:24;;;;;;;;;;;;;;;;;;5037286;28;19945;-78
2022/11/09 04:27:50;;;;;;;;;;;;;;;;;;5036667;28;20000;-78
2022/11/09 04:30:16;;;;;;;;;;;;;;;;;;5036877;28;19953;-78
2022/11/09 04:32:42;;;;;;;;;;;;;;;;;;5037945;28;19909;-78
2022/11/09 04:35:08;;;;;;;;;;;;;;;;;;5038221;28;19932;-78
2022/11/09 04:37:34;;;;;;;;;;;;;;;;;;5037937;28;19917;-78
2022/11/09 04:40:00;;;;;;;;;;;;;;;;;;5037194;28;19909;-77
2022/11/09 04:42:25;;;;;;;;;;;;;;;;;;5037085;28;20388;-77
2022/11/09 04:44:51;;;;;;;;;;;;;;;;;;5038001;28;19920;-78
2022/11/09 04:47:17;;;;;;;;;;;;;;;;;;5035999;28;20485;-78
2022/11/09 04:49:43;;;;;;;;;;;;;;;;;;5037827;28;19913;-78
2022/11/09 04:52:09;;;;;;;;;;;;;;;;;;5036221;28;20343;-78
2022/11/09 04:54:35;;;;;;;;;;;;;;;;;;5036399;28;19909;-78
2022/11/09 04:57:01;;;;;;;;;;;;;;;;;;5035968;28;19920;-78
2022/11/09 04:59:27;;;;;;;;;;;;;;;;;;5034252;28;19910;-77
2022/11/09 05:01:53;;;;;;;;;;;;;;;;;;5033710;28;19917;-77
2022/11/09 05:04:19;;;;;;;;;;;;;;;;;;5034956;28;19983;-77
2022/11/09 05:06:44;;;;;;;;;;;;;;;;;;5033741;28;19909;-77
2022/11/09 05:09:10;;;;;;;;;;;;;;;;;;5034267;28;19967;-77
2022/11/09 05:11:36;;;;;;;;;;;;;;;;;;5034693;28;19909;-78
2022/11/09 05:14:02;;;;;;;;;;;;;;;;;;5029433;28;19980;-77
2022/11/09 05:16:28;;;;;;;;;;;;;;;;;;5007805;28;19919;-78
2022/11/09 05:18:54;;;;;;;;;;;;;;;;;;4999675;28;20339;-78
2022/11/09 05:21:20;;;;;;;;;;;;;;;;;;5002016;28;19913;-77
2022/11/09 05:23:58;;;;;;;;;;;;;;;;;;5013307;28;19921;-78
2022/11/09 05:26:24;;;;;;;;;;;;;;;;;;5010485;28;19910;-78
2022/11/09 05:28:51;;;;;;;;;;;;;;;;;;5003276;28;20392;-77
2022/11/09 05:31:17;;;;;;;;;;;;;;;;;;5010552;28;20001;-75
2022/11/09 05:33:43;;;;;;;;;;;;;;;;;;4996292;28;19953;-77
2022/11/09 05:36:09;;;;;;;;;;;;;;;;;;5011507;28;20374;-78
2022/11/09 05:38:35;;;;;;;;;;;;;;;;;;4995738;28;19914;-75
2022/11/09 05:41:01;;;;;;;;;;;;;;;;;;5015295;28;19921;-78
2022/11/09 05:43:26;;;;;;;;;;;;;;;;;;5014355;28;19914;-77
2022/11/09 05:45:52;;;;;;;;;;;;;;;;;;5015337;28;19914;-78
2022/11/09 05:48:18;;;;;;;;;;;;;;;;;;5016501;28;19959;-78
2022/11/09 05:50:44;;;;;;;;;;;;;;;;;;5015093;28;19909;-77
2022/11/09 05:53:10;;;;;;;;;;;;;;;;;;5016804;28;19922;-77
2022/11/09 05:55:36;;;;;;;;;;;;;;;;;;5015102;28;20259;-77
2022/11/09 05:58:02;;;;;;;;;;;;;;;;;;5016445;28;19909;-78
2022/11/09 06:00:28;;;;;;;;;;;;;;;;;;5019333;28;19916;-78
2022/11/09 06:02:54;;;;;;;;;;;;;;;;;;5019890;28;19964;-77
2022/11/09 06:05:20;;;;;;;;;;;;;;;;;;5018471;28;20277;-77
2022/11/09 06:07:46;;;;;;;;;;;;;;;;;;5018900;28;19910;-79
2022/11/09 06:10:12;;;;;;;;;;;;;;;;;;5017689;28;19963;-78
2022/11/09 06:12:38;;;;;;;;;;;;;;;;;;5017532;28;19996;-81
2022/11/09 06:15:04;;;;;;;;;;;;;;;;;;5018892;28;19918;-78
2022/11/09 06:17:30;;;;;;;;;;;;;;;;;;5019206;28;20000;-79
2022/11/09 06:19:56;;;;;;;;;;;;;;;;;;5017487;28;19963;-78
2022/11/09 06:22:22;;;;;;;;;;;;;;;;;;5017294;28;19963;-75
2022/11/09 06:24:47;;;;;;;;;;;;;;;;;;5018262;28;19917;-77
2022/11/09 06:27:13;;;;;;;;;;;;;;;;;;5019573;28;20003;-76
2022/11/09 06:29:39;;;;;;;;;;;;;;;;;;5018756;28;19967;-77
2022/11/09 06:32:05;;;;;;;;;;;;;;;;;;5017322;28;19914;-79
2022/11/09 06:34:31;;;;;;;;;;;;;;;;;;5019024;28;19913;-77
2022/11/09 06:36:57;;;;;;;;;;;;;;;;;;5018844;28;20432;-77
2022/11/09 06:39:23;;;;;;;;;;;;;;;;;;5019271;28;19910;-78
2022/11/09 06:41:49;;;;;;;;;;;;;;;;;;5017615;28;20453;-79
2022/11/09 06:44:15;;;;;;;;;;;;;;;;;;5018026;28;19914;-79
2022/11/09 06:46:41;;;;;;;;;;;;;;;;;;5016213;28;20374;-78
2022/11/09 06:49:07;;;;;;;;;;;;;;;;;;5017232;28;19913;-78
2022/11/09 06:51:33;;;;;;;;;;;;;;;;;;5017942;28;19933;-77
2022/11/09 06:53:59;;;;;;;;;;;;;;;;;;5017745;28;20362;-78
2022/11/09 06:56:24;;;;;;;;;;;;;;;;;;5019661;28;19909;-80
2022/11/09 06:58:50;;;;;;;;;;;;;;;;;;5017678;28;20270;-79
2022/11/09 07:01:16;;;;;;;;;;;;;;;;;;5017134;28;19913;-77
2022/11/09 07:03:42;;;;;;;;;;;;;;;;;;5018946;28;19917;-77
2022/11/09 07:06:08;;;;;;;;;;;;;;;;;;5020471;28;20465;-77
2022/11/09 07:08:34;;;;;;;;;;;;;;;;;;5018485;28;19916;-77
2022/11/09 07:11:00;;;;;;;;;;;;;;;;;;5018133;28;19955;-80
2022/11/09 07:13:26;;;;;;;;;;;;;;;;;;5018260;28;19952;-81
2022/11/09 07:15:52;;;;;;;;;;;;;;;;;;5019535;28;19913;-79
2022/11/09 07:18:18;;;;;;;;;;;;;;;;;;5016938;28;21130;-78
2022/11/09 07:20:44;;;;;;;;;;;;;;;;;;5034013;28;19916;-77
2022/11/09 07:23:09;;;;;;;;;;;;;;;;;;5037345;28;19913;-77
2022/11/09 07:25:35;;;;;;;;;;;;;;;;;;5036191;28;19913;-77
2022/11/09 07:28:02;;;;;;;;;;;;;;;;;;5035629;28;19944;-77
2022/11/09 07:30:28;;;;;;;;;;;;;;;;;;5016658;28;19920;-79
2022/11/09 07:32:54;;;;;;;;;;;;;;;;;;5016793;28;19913;-76
2022/11/09 07:35:20;;;;;;;;;;;;;;;;;;5015610;28;19914;-76
2022/11/09 07:37:46;;;;;;;;;;;;;;;;;;5016157;28;19964;-79
2022/11/09 07:40:12;;;;;;;;;;;;;;;;;;5015937;28;19906;-77
2022/11/09 07:42:37;;;;;;;;;;;;;;;;;;5015603;28;19909;-77
2022/11/09 07:45:03;;;;;;;;;;;;;;;;;;5015716;28;19960;-78
2022/11/09 07:47:29;;;;;;;;;;;;;;;;;;5016237;28;19931;-76
2022/11/09 07:49:55;;;;;;;;;;;;;;;;;;5015665;28;19977;-79
2022/11/09 07:52:21;;;;;;;;;;;;;;;;;;5016048;28;20419;-78
2022/11/09 07:54:47;;;;;;;;;;;;;;;;;;5016138;28;19913;-77
2022/11/09 07:57:13;;;;;;;;;;;;;;;;;;5016122;28;19909;-77
2022/11/09 07:59:39;;;;;;;;;;;;;;;;;;5015378;28;20424;-78
2022/11/09 08:02:05;;;;;;;;;;;;;;;;;;5016355;28;20012;-77
2022/11/09 08:04:31;;;;;;;;;;;;;;;;;;5015654;28;20421;-78
2022/11/09 08:06:56;;;;;;;;;;;;;;;;;;5015011;28;19913;-77
2022/11/09 08:09:23;;;;;;;;;;;;;;;;;;5014631;28;19914;-76
2022/11/09 08:11:48;;;;;;;;;;;;;;;;;;5014828;28;19910;-77
2022/11/09 08:14:14;;;;;;;;;;;;;;;;;;5015728;28;19925;-76
2022/11/09 08:16:40;;;;;;;;;;;;;;;;;;5016023;28;19917;-76
2022/11/09 08:19:08;;;;;;;;;;;;;;;;;;5015843;28;19909;-77
2022/11/09 08:21:34;;;;;;;;;;;;;;;;;;5014833;28;19960;-77
2022/11/09 08:24:00;;;;;;;;;;;;;;;;;;5013633;28;19921;-76
2022/11/09 08:26:26;;;;;;;;;;;;;;;;;;5016649;28;20346;-79
2022/11/09 08:28:51;;;;;;;;;;;;;;;;;;5014407;28;19916;-77
2022/11/09 08:31:17;;;;;;;;;;;;;;;;;;5014085;28;20336;-77
2022/11/09 08:33:43;;;;;;;;;;;;;;;;;;5014185;28;19914;-76
2022/11/09 08:36:09;;;;;;;;;;;;;;;;;;5014615;28;19925;-76
2022/11/09 08:38:35;;;;;;;;;;;;;;;;;;5014172;28;19936;-78
2022/11/09 08:41:01;;;;;;;;;;;;;;;;;;5016616;28;19913;-77
2022/11/09 08:43:27;;;;;;;;;;;;;;;;;;5016107;28;20259;-77
2022/11/09 08:45:53;;;;;;;;;;;;;;;;;;5016306;28;20009;-77
2022/11/09 08:48:18;;;;;;;;;;;;;;;;;;5015396;28;19905;-77
2022/11/09 08:50:44;;;;;;;;;;;;;;;;;;5017145;28;19913;-78
2022/11/09 08:53:10;;;;;;;;;;;;;;;;;;5016310;28;19909;-77
2022/11/09 08:55:36;;;;;;;;;;;;;;;;;;5013804;28;19929;-78
2022/11/09 08:58:02;;;;;;;;;;;;;;;;;;5014256;28;20416;-77
2022/11/09 09:00:28;;;;;;;;;;;;;;;;;;5014348;28;19910;-79
2022/11/09 09:02:54;;;;;;;;;;;;;;;;;;5014787;28;19992;-77
2022/11/09 09:05:20;;;;;;;;;;;;;;;;;;5014201;28;19916;-75
2022/11/09 09:07:46;;;;;;;;;;;;;;;;;;5014190;28;19975;-79
2022/11/09 09:10:12;;;;;;;;;;;;;;;;;;5015039;28;19996;-77
2022/11/09 09:12:38;;;;;;;;;;;;;;;;;;5015570;28;20004;-78
2022/11/09 09:15:03;;;;;;;;;;;;;;;;;;5014894;28;19957;-76
2022/11/09 09:17:29;;;;;;;;;;;;;;;;;;5013281;28;20366;-78
2022/11/09 09:19:55;;;;;;;;;;;;;;;;;;5013735;28;19936;-79
2022/11/09 09:22:21;;;;;;;;;;;;;;;;;;5014431;28;19920;-77
2022/11/09 09:24:47;;;;;;;;;;;;;;;;;;5016109;28;19913;-77
2022/11/09 09:27:13;;;;;;;;;;;;;;;;;;5016855;28;19921;-78
2022/11/09 09:29:39;;;;;;;;;;;;;;;;;;5016293;28;20294;-77
2022/11/09 09:32:05;;;;;;;;;;;;;;;;;;5016678;28;19909;-77
2022/11/09 09:34:31;;;;;;;;;;;;;;;;;;5018393;28;19917;-78
2022/11/09 09:36:57;;;;;;;;;;;;;;;;;;5018475;28;20424;-78
2022/11/09 09:39:23;;;;;;;;;;;;;;;;;;5019866;28;19910;-77
2022/11/09 09:41:49;;;;;;;;;;;;;;;;;;5018890;28;20365;-76
2022/11/09 09:44:15;;;;;;;;;;;;;;;;;;5017889;28;20402;-77
2022/11/09 09:46:40;;;;;;;;;;;;;;;;;;5018929;28;19920;-79
2022/11/09 09:49:06;;;;;;;;;;;;;;;;;;5019662;28;19916;-77
2022/11/09 09:51:32;;;;;;;;;;;;;;;;;;5018604;28;20340;-81
2022/11/09 09:53:58;;;;;;;;;;;;;;;;;;5019097;28;20000;-79
2022/11/09 09:56:24;;;;;;;;;;;;;;;;;;5018088;28;20294;-77
2022/11/09 09:58:50;;;;;;;;;;;;;;;;;;5020170;28;19910;-78
2022/11/09 10:01:16;;;;;;;;;;;;;;;;;;5018611;28;19972;-78
2022/11/09 10:03:42;;;;;;;;;;;;;;;;;;5018121;28;19913;-77
2022/11/09 10:06:08;;;;;;;;;;;;;;;;;;5018139;28;20372;-77
2022/11/09 10:08:33;;;;;;;;;;;;;;;;;;5019736;28;19909;-77
2022/11/09 10:10:59;;;;;;;;;;;;;;;;;;5020171;28;20445;-79
2022/11/09 10:13:25;;;;;;;;;;;;;;;;;;5017487;28;19977;-77
2022/11/09 10:15:51;;;;;;;;;;;;;;;;;;5018198;28;19918;-79
2022/11/09 10:18:17;;;;;;;;;;;;;;;;;;5018969;28;19921;-77
2022/11/09 10:20:43;;;;;;;;;;;;;;;;;;5018761;28;19936;-78
2022/11/09 10:23:09;;;;;;;;;;;;;;;;;;5017479;28;20007;-78
2022/11/09 10:25:35;;;;;;;;;;;;;;;;;;5018410;28;20000;-78
2022/11/09 10:28:00;;;;;;;;;;;;;;;;;;5018898;28;19920;-78
2022/11/09 10:30:27;;;;;;;;;;;;;;;;;;5017173;28;19964;-78
2022/11/09 10:32:53;;;;;;;;;;;;;;;;;;5018699;28;20440;-78
2022/11/09 10:35:19;;;;;;;;;;;;;;;;;;5018302;28;19952;-78
2022/11/09 10:37:45;;;;;;;;;;;;;;;;;;5017065;28;19956;-78
2022/11/09 10:40:11;;;;;;;;;;;;;;;;;;5017915;28;20058;-79
2022/11/09 10:42:37;;;;;;;;;;;;;;;;;;5017711;28;19960;-79
2022/11/09 10:45:06;;;;;;;;;;;;;;;;;;5015602;28;20000;-80
2022/11/09 10:47:32;;;;;;;;;;;;;;;;;;5017833;28;19914;-81
2022/11/09 10:49:58;;;;;;;;;;;;;;;;;;5016301;28;20266;-79
2022/11/09 10:52:24;;;;;;;;;;;;;;;;;;5016214;28;19916;-76
2022/11/09 10:54:50;;;;;;;;;;;;;;;;;;5016165;28;20329;-77
2022/11/09 10:57:15;;;;;;;;;;;;;;;;;;5016060;28;19910;-77
2022/11/09 10:59:41;;;;;;;;;;;;;;;;;;5016584;28;19949;-79
2022/11/09 11:02:07;;;;;;;;;;;;;;;;;;5017101;28;19948;-79
2022/11/09 11:04:33;;;;;;;;;;;;;;;;;;5015641;28;20321;-77
2022/11/09 11:06:59;;;;;;;;;;;;;;;;;;5016073;28;19910;-77
2022/11/09 11:09:25;;;;;;;;;;;;;;;;;;5015632;28;19913;-75
2022/11/09 11:11:51;;;;;;;;;;;;;;;;;;5016328;28;19956;-78
2022/11/09 11:14:17;;;;;;;;;;;;;;;;;;5013640;28;19917;-77
2022/11/09 11:16:43;;;;;;;;;;;;;;;;;;5014646;28;19921;-77
2022/11/09 11:19:08;;;;;;;;;;;;;;;;;;5014405;28;19917;-77
2022/11/09 11:21:34;;;;;;;;;;;;;;;;;;5014550;28;20299;-78
2022/11/09 11:24:00;;;;;;;;;;;;;;;;;;5032526;28;19917;-76
2022/11/09 11:26:26;;;;;;;;;;;;;;;;;;5035004;28;20371;-77
2022/11/09 11:28:52;;;;;;;;;;;;;;;;;;5019958;28;19953;-77
2022/11/09 11:31:18;;;;;;;;;;;;;;;;;;5019916;28;20004;-77
2022/11/09 11:33:44;;;;;;;;;;;;;;;;;;5016245;28;19952;-78
2022/11/09 11:36:10;;;;;;;;;;;;;;;;;;5016465;28;19910;-80
2022/11/09 11:38:36;;;;;;;;;;;;;;;;;;5016490;28;19921;-77
2022/11/09 11:41:02;;;;;;;;;;;;;;;;;;5017200;28;19910;-78
2022/11/09 11:43:28;;;;;;;;;;;;;;;;;;5014993;28;19914;-77
2022/11/09 11:45:54;;;;;;;;;;;;;;;;;;5018833;28;19910;-80
2022/11/09 11:48:20;;;;;;;;;;;;;;;;;;5017099;28;19916;-79
2022/11/09 11:50:46;;;;;;;;;;;;;;;;;;5018825;28;19909;-78
2022/11/09 11:53:12;;;;;;;;;;;;;;;;;;5013352;28;20404;-78
2022/11/09 11:55:38;;;;;;;;;;;;;;;;;;5027648;28;19957;-79
2022/11/09 11:58:03;;;;;;;;;;;;;;;;;;5015245;28;20312;-78
2022/11/09 12:00:29;;;;;;;;;;;;;;;;;;5016075;28;19909;-77
2022/11/09 12:02:55;;;;;;;;;;;;;;;;;;5017289;28;19910;-78
2022/11/09 12:05:21;;;;;;;;;;;;;;;;;;5015522;28;19917;-80
2022/11/09 12:07:47;;;;;;;;;;;;;;;;;;5015509;28;19913;-80
2022/11/09 12:10:13;;;;;;;;;;;;;;;;;;5014844;28;19921;-80
2022/11/09 12:12:39;;;;;;;;;;;;;;;;;;5015525;28;19949;-77
2022/11/09 12:15:05;;;;;;;;;;;;;;;;;;5015131;28;19918;-78
2022/11/09 12:17:31;;;;;;;;;;;;;;;;;;5006581;28;19917;-77
2022/11/09 12:19:57;;;;;;;;;;;;;;;;;;4998671;28;19917;-77
2022/11/09 12:22:23;;;;;;;;;;;;;;;;;;4979436;28;19914;-79
2022/11/09 12:24:49;;;;;;;;;;;;;;;;;;5014864;28;19964;-77
2022/11/09 12:27:15;;;;;;;;;;;;;;;;;;5009110;28;19921;-77
2022/11/09 12:29:41;;;;;;;;;;;;;;;;;;5019243;28;19916;-77
2022/11/09 12:32:07;;;;;;;;;;;;;;;;;;5010092;28;19956;-76
2022/11/09 12:34:33;;;;;;;;;;;;;;;;;;5014577;28;20393;-79
2022/11/09 12:36:59;;;;;;;;;;;;;;;;;;5015096;28;19917;-77
2022/11/09 12:39:25;;;;;;;;;;;;;;;;;;5014948;28;19917;-76
2022/11/09 12:41:51;;;;;;;;;;;;;;;;;;5016145;28;19910;-77
2022/11/09 12:44:16;;;;;;;;;;;;;;;;;;5013852;28;19913;-78
2022/11/09 12:46:42;;;;;;;;;;;;;;;;;;5014118;28;19922;-76
2022/11/09 12:49:08;;;;;;;;;;;;;;;;;;5014688;28;20016;-76
2022/11/09 12:51:35;;;;;;;;;;;;;;;;;;5014332;28;19916;-78
2022/11/09 12:54:01;;;;;;;;;;;;;;;;;;5013451;28;19925;-77
2022/11/09 12:56:27;;;;;;;;;;;;;;;;;;5014373;28;19909;-76
2022/11/09 12:58:53;;;;;;;;;;;;;;;;;;5014568;28;20292;-76
2022/11/09 13:01:19;;;;;;;;;;;;;;;;;;5015272;28;19909;-78
2022/11/09 13:03:45;;;;;;;;;;;;;;;;;;5014328;28;19913;-76
2022/11/09 13:06:11;;;;;;;;;;;;;;;;;;5015669;28;20336;-76
2022/11/09 13:08:37;;;;;;;;;;;;;;;;;;5015205;28;19920;-75
2022/11/09 13:11:03;;;;;;;;;;;;;;;;;;5014307;28;19910;-76
2022/11/09 13:13:28;;;;;;;;;;;;;;;;;;5014497;28;19956;-76
2022/11/09 13:15:54;;;;;;;;;;;;;;;;;;5015382;28;19913;-75
2022/11/09 13:18:20;;;;;;;;;;;;;;;;;;5015068;28;20277;-76
2022/11/09 13:20:46;;;;;;;;;;;;;;;;;;5015344;28;19914;-75
2022/11/09 13:23:12;;;;;;;;;;;;;;;;;;5014803;28;20266;-74
2022/11/09 13:25:38;;;;;;;;;;;;;;;;;;5014546;28;19909;-75
2022/11/09 13:28:04;;;;;;;;;;;;;;;;;;5013693;28;19909;-76
2022/11/09 13:30:30;;;;;;;;;;;;;;;;;;5013661;28;19917;-78
2022/11/09 13:32:56;;;;;;;;;;;;;;;;;;5013611;28;19921;-76
2022/11/09 13:35:22;;;;;;;;;;;;;;;;;;5025107;28;20003;-82
2022/11/09 13:37:49;;;;;;;;;;;;;;;;;;5026847;28;19909;-81
2022/11/09 13:40:15;;;;;;;;;;;;;;;;;;5020181;28;19941;-77
2022/11/09 13:42:41;;;;;;;;;;;;;;;;;;5014037;28;19914;-81
2022/11/09 13:45:07;;;;;;;;;;;;;;;;;;5012888;28;19977;-78
2022/11/09 13:47:32;;;;;;;;;;;;;;;;;;5014847;28;19909;-80
2022/11/09 13:50:00;;;;;;;;;;;;;;;;;;5016045;28;20082;-79
2022/11/09 13:52:26;;;;;;;;;;;;;;;;;;5015915;28;19913;-79
2022/11/09 13:54:53;;;;;;;;;;;;;;;;;;4996838;28;20346;-79
2022/11/09 13:57:19;;;;;;;;;;;;;;;;;;4997002;28;19910;-79
2022/11/09 13:59:45;;;;;;;;;;;;;;;;;;5013513;28;20400;-80
2022/11/09 14:02:11;;;;;;;;;;;;;;;;;;5013500;28;19924;-81
2022/11/09 14:04:37;;;;;;;;;;;;;;;;;;5013317;28;19914;-82
2022/11/09 14:07:03;;;;;;;;;;;;;;;;;;5008543;28;20389;-82
2022/11/09 14:09:29;;;;;;;;;;;;;;;;;;5012843;28;19910;-80
2022/11/09 14:11:56;;;;;;;;;;;;;;;;;;5009088;28;19910;-75
2022/11/09 14:14:21;;;;;;;;;;;;;;;;;;5011239;28;19988;-76
2022/11/09 14:16:47;;;;;;;;;;;;;;;;;;5010787;28;20529;-78
2022/11/09 14:19:13;;;;;;;;;;;;;;;;;;5009452;28;19913;-79
2022/11/09 14:21:39;;;;;;;;;;;;;;;;;;5014313;28;19913;-78
2022/11/09 14:24:05;;;;;;;;;;;;;;;;;;5014178;28;19914;-78
2022/11/09 14:26:31;;;;;;;;;;;;;;;;;;5014278;28;19913;-79
2022/11/09 14:28:57;;;;;;;;;;;;;;;;;;5011885;28;19914;-81
2022/11/09 14:31:23;;;;;;;;;;;;;;;;;;5010703;28;20003;-81
2022/11/09 14:33:49;;;;;;;;;;;;;;;;;;5015930;28;19995;-77
2022/11/09 14:36:15;;;;;;;;;;;;;;;;;;5014267;28;19916;-79
2022/11/09 14:38:40;;;;;;;;;;;;;;;;;;5013487;28;19917;-78
2022/11/09 14:41:06;;;;;;;;;;;;;;;;;;5016852;28;20037;-79
2022/11/09 14:43:32;;;;;;;;;;;;;;;;;;5014425;28;19959;-77
2022/11/09 14:45:58;;;;;;;;;;;;;;;;;;5012979;28;20378;-77
2022/11/09 14:48:24;;;;;;;;;;;;;;;;;;5012438;28;19915;-78
2022/11/09 14:50:50;;;;;;;;;;;;;;;;;;5000178;28;20334;-77
2022/11/09 14:53:17;;;;;;;;;;;;;;;;;;5012520;28;20008;-77
2022/11/09 14:55:43;;;;;;;;;;;;;;;;;;5010819;28;19921;-77
2022/11/09 14:58:09;;;;;;;;;;;;;;;;;;5011081;28;19918;-76
2022/11/09 15:00:35;;;;;;;;;;;;;;;;;;5011445;28;19952;-77
2022/11/09 15:03:01;;;;;;;;;;;;;;;;;;5010395;28;19935;-76
2022/11/09 15:05:27;;;;;;;;;;;;;;;;;;5013983;28;19913;-79
2022/11/09 15:07:53;;;;;;;;;;;;;;;;;;5015199;28;19999;-78
2022/11/09 15:10:19;;;;;;;;;;;;;;;;;;5017686;28;20297;-81
2022/11/09 15:12:44;;;;;;;;;;;;;;;;;;5014611;28;19913;-80
2022/11/09 15:15:10;;;;;;;;;;;;;;;;;;5010025;28;20310;-78
2022/11/09 15:17:36;;;;;;;;;;;;;;;;;;5011711;28;19920;-78
2022/11/09 15:20:03;;;;;;;;;;;;;;;;;;5010379;28;20354;-81
2022/11/09 15:22:29;;;;;;;;;;;;;;;;;;5015843;28;20004;-80
2022/11/09 15:24:55;;;;;;;;;;;;;;;;;;5013654;28;19941;-80
2022/11/09 15:27:21;;;;;;;;;;;;;;;;;;5017039;28;20382;-78
2022/11/09 15:29:47;;;;;;;;;;;;;;;;;;5012904;28;19910;-80
2022/11/09 15:32:13;;;;;;;;;;;;;;;;;;5011633;28;20301;-80
2022/11/09 15:34:38;;;;;;;;;;;;;;;;;;5009840;28;19914;-82
2022/11/09 15:37:04;;;;;;;;;;;;;;;;;;5008519;28;20391;-82
2022/11/09 15:39:30;;;;;;;;;;;;;;;;;;5019375;28;19914;-83
2022/11/09 15:41:56;;;;;;;;;;;;;;;;;;5014000;28;20004;-81
2022/11/09 15:44:22;;;;;;;;;;;;;;;;;;5018232;28;19922;-81
2022/11/09 15:46:48;;;;;;;;;;;;;;;;;;5013438;28;19914;-82
2022/11/09 15:49:14;;;;;;;;;;;;;;;;;;5011009;28;19918;-81
2022/11/09 15:51:40;;;;;;;;;;;;;;;;;;5008829;28;19909;-84
2022/11/09 15:54:06;;;;;;;;;;;;;;;;;;5015053;28;19913;-83
2022/11/09 15:56:32;;;;;;;;;;;;;;;;;;5016719;28;20016;-84
2022/11/09 15:58:58;;;;;;;;;;;;;;;;;;5016076;28;19913;-82
2022/11/09 16:01:24;;;;;;;;;;;;;;;;;;5012324;28;20285;-82
2022/11/09 16:03:50;;;;;;;;;;;;;;;;;;5010943;28;19948;-81
2022/11/09 16:06:17;;;;;;;;;;;;;;;;;;5012042;28;19964;-76
2022/11/09 16:08:43;;;;;;;;;;;;;;;;;;5010570;28;19941;-79
2022/11/09 16:11:09;;;;;;;;;;;;;;;;;;5010334;28;19931;-78
2022/11/09 16:13:35;;;;;;;;;;;;;;;;;;5008629;28;19979;-78
2022/11/09 16:16:01;;;;;;;;;;;;;;;;;;5009759;28;19932;-78
2022/11/09 16:18:39;;;;;;;;;;;;;;;;;;5090755;27;1959472;-80
2022/11/09 16:21:05;;;;;;;;;;;;;;;;;;5159846;27;19934;-80
2022/11/09 16:23:31;;;;;;;;;;;;;;;;;;5147067;27;19915;-80
2022/11/09 16:25:58;;;;;;;;;;;;;;;;;;5130872;27;19907;-79
2022/11/09 16:28:24;;;;;;;;;;;;;;;;;;5150838;27;19997;-76
2022/11/09 16:30:50;;;;;;;;;;;;;;;;;;5149651;27;20415;-79
2022/11/09 16:33:16;;;;;;;;;;;;;;;;;;5143490;27;19943;-76
2022/11/09 16:35:42;;;;;;;;;;;;;;;;;;5146959;27;19907;-77
2022/11/09 16:38:07;;;;;;;;;;;;;;;;;;5147308;27;19919;-76